sensor_id;sensor_type;location;lat;lon;timestamp;P1;durP1;ratioP1;P2;durP2;ratioP2
43327;SDS011;28923;45.412;10.852;2023-08-17T04:02:49;1.52;;;1.42;;
43327;SDS011;28923;45.412;10.852;2023-08-17T04:05:18;1.60;;;1.50;;
43327;SDS011;28923;45.412;10.852;2023-08-17T04:07:43;1.75;;;1.65;;
43327;SDS011;28923;45.412;10.852;2023-08-17T04:10:09;1.80;;;1.63;;
43327;SDS011;28923;45.412;10.852;2023-08-17T04:12:34;1.80;;;1.70;;
43327;SDS011;28923;45.412;10.852;2023-08-17T04:15:00;6.93;;;3.85;;
43327;SDS011;28923;45.412;10.852;2023-08-17T04:17:25;5.20;;;4.70;;
43327;SDS011;28923;45.412;10.852;2023-08-17T04:19:51;5.75;;;5.20;;
43327;SDS011;28923;45.412;10.852;2023-08-17T04:22:16;6.00;;;5.40;;
43327;SDS011;28923;45.412;10.852;2023-08-17T04:24:42;5.88;;;5.22;;
43327;SDS011;28923;45.412;10.852;2023-08-17T04:27:07;7.05;;;5.80;;
43327;SDS011;28923;45.412;10.852;2023-08-17T04:29:33;6.50;;;5.70;;
43327;SDS011;28923;45.412;10.852;2023-08-17T04:32:01;7.43;;;6.63;;
43327;SDS011;28923;45.412;10.852;2023-08-17T04:34:27;8.00;;;7.13;;
43327;SDS011;28923;45.412;10.852;2023-08-17T04:36:53;8.50;;;7.70;;
43327;SDS011;28923;45.412;10.852;2023-08-17T04:39:19;9.07;;;8.18;;
43327;SDS011;28923;45.412;10.852;2023-08-17T04:41:45;8.68;;;7.70;;
43327;SDS011;28923;45.412;10.852;2023-08-17T04:44:15;9.93;;;7.32;;
43327;SDS011;28923;45.412;10.852;2023-08-17T04:46:41;8.57;;;7.78;;
43327;SDS011;28923;45.412;10.852;2023-08-17T04:49:07;10.07;;;7.97;;
43327;SDS011;28923;45.412;10.852;2023-08-17T04:51:32;14.15;;;7.65;;
43327;SDS011;28923;45.412;10.852;2023-08-17T04:53:57;8.40;;;7.60;;
43327;SDS011;28923;45.412;10.852;2023-08-17T04:56:23;11.70;;;8.27;;
43327;SDS011;28923;45.412;10.852;2023-08-17T04:58:49;8.07;;;7.28;;
43327;SDS011;28923;45.412;10.852;2023-08-17T05:01:16;9.70;;;7.80;;
43327;SDS011;28923;45.412;10.852;2023-08-17T05:03:43;9.23;;;7.90;;
43327;SDS011;28923;45.412;10.852;2023-08-17T05:06:09;9.57;;;8.10;;
43327;SDS011;28923;45.412;10.852;2023-08-17T05:08:34;8.70;;;7.30;;
43327;SDS011;28923;45.412;10.852;2023-08-17T05:11:00;11.48;;;8.32;;
43327;SDS011;28923;45.412;10.852;2023-08-17T05:13:25;8.77;;;7.88;;
43327;SDS011;28923;45.412;10.852;2023-08-17T05:15:53;11.63;;;8.55;;
43327;SDS011;28923;45.412;10.852;2023-08-17T05:18:19;14.88;;;8.15;;
43327;SDS011;28923;45.412;10.852;2023-08-17T05:20:45;8.98;;;8.13;;
43327;SDS011;28923;45.412;10.852;2023-08-17T05:23:10;9.98;;;8.48;;
43327;SDS011;28923;45.412;10.852;2023-08-17T05:25:36;10.68;;;8.70;;
43327;SDS011;28923;45.412;10.852;2023-08-17T05:28:02;11.13;;;9.35;;
43327;SDS011;28923;45.412;10.852;2023-08-17T05:30:28;9.70;;;8.70;;
43327;SDS011;28923;45.412;10.852;2023-08-17T05:32:53;9.55;;;8.45;;
43327;SDS011;28923;45.412;10.852;2023-08-17T05:35:19;10.57;;;7.90;;
43327;SDS011;28923;45.412;10.852;2023-08-17T05:37:45;9.18;;;8.30;;
43327;SDS011;28923;45.412;10.852;2023-08-17T05:40:10;10.48;;;9.38;;
43327;SDS011;28923;45.412;10.852;2023-08-17T05:42:36;10.50;;;9.50;;
43327;SDS011;28923;45.412;10.852;2023-08-17T05:45:01;10.93;;;9.55;;
43327;SDS011;28923;45.412;10.852;2023-08-17T05:47:27;10.32;;;9.38;;
43327;SDS011;28923;45.412;10.852;2023-08-17T05:49:52;11.73;;;9.77;;
43327;SDS011;28923;45.412;10.852;2023-08-17T05:52:17;11.10;;;10.05;;
43327;SDS011;28923;45.412;10.852;2023-08-17T05:54:43;10.57;;;9.57;;
43327;SDS011;28923;45.412;10.852;2023-08-17T05:57:08;13.02;;;10.10;;
43327;SDS011;28923;45.412;10.852;2023-08-17T05:59:35;11.82;;;10.20;;
43327;SDS011;28923;45.412;10.852;2023-08-17T06:02:00;11.57;;;9.65;;
43327;SDS011;28923;45.412;10.852;2023-08-17T06:04:25;12.07;;;9.75;;
43327;SDS011;28923;45.412;10.852;2023-08-17T06:06:51;10.88;;;9.75;;
43327;SDS011;28923;45.412;10.852;2023-08-17T06:09:16;13.50;;;10.32;;
43327;SDS011;28923;45.412;10.852;2023-08-17T06:11:42;15.63;;;11.02;;
43327;SDS011;28923;45.412;10.852;2023-08-17T06:14:07;14.23;;;9.75;;
43327;SDS011;28923;45.412;10.852;2023-08-17T06:16:33;13.30;;;11.60;;
43327;SDS011;28923;45.412;10.852;2023-08-17T06:18:58;14.73;;;12.63;;
43327;SDS011;28923;45.412;10.852;2023-08-17T06:21:23;19.13;;;13.00;;
43327;SDS011;28923;45.412;10.852;2023-08-17T06:23:49;19.08;;;12.43;;
43327;SDS011;28923;45.412;10.852;2023-08-17T06:26:14;14.82;;;12.70;;
43327;SDS011;28923;45.412;10.852;2023-08-17T06:28:39;16.80;;;13.70;;
43327;SDS011;28923;45.412;10.852;2023-08-17T06:31:05;18.13;;;14.13;;
43327;SDS011;28923;45.412;10.852;2023-08-17T06:33:31;13.93;;;11.95;;
43327;SDS011;28923;45.412;10.852;2023-08-17T06:35:56;18.42;;;11.52;;
43327;SDS011;28923;45.412;10.852;2023-08-17T06:38:21;12.82;;;11.40;;
43327;SDS011;28923;45.412;10.852;2023-08-17T06:40:47;17.55;;;10.65;;
43327;SDS011;28923;45.412;10.852;2023-08-17T06:43:13;10.65;;;9.15;;
43327;SDS011;28923;45.412;10.852;2023-08-17T06:45:38;10.88;;;8.88;;
43327;SDS011;28923;45.412;10.852;2023-08-17T06:48:04;9.57;;;8.57;;
43327;SDS011;28923;45.412;10.852;2023-08-17T06:50:29;10.93;;;9.02;;
43327;SDS011;28923;45.412;10.852;2023-08-17T06:52:55;9.25;;;8.10;;
43327;SDS011;28923;45.412;10.852;2023-08-17T06:55:20;10.45;;;7.68;;
43327;SDS011;28923;45.412;10.852;2023-08-17T06:57:46;9.43;;;7.88;;
43327;SDS011;28923;45.412;10.852;2023-08-17T07:00:12;8.00;;;7.05;;
43327;SDS011;28923;45.412;10.852;2023-08-17T07:02:38;9.52;;;6.88;;
43327;SDS011;28923;45.412;10.852;2023-08-17T07:05:03;8.30;;;7.45;;
43327;SDS011;28923;45.412;10.852;2023-08-17T07:07:29;9.57;;;7.10;;
43327;SDS011;28923;45.412;10.852;2023-08-17T07:09:57;8.05;;;6.50;;
43327;SDS011;28923;45.412;10.852;2023-08-17T07:12:22;7.78;;;6.97;;
43327;SDS011;28923;45.412;10.852;2023-08-17T07:14:49;9.90;;;6.85;;
43327;SDS011;28923;45.412;10.852;2023-08-17T07:17:14;6.80;;;6.20;;
43327;SDS011;28923;45.412;10.852;2023-08-17T07:19:40;7.60;;;6.50;;
43327;SDS011;28923;45.412;10.852;2023-08-17T07:22:06;6.57;;;5.97;;
43327;SDS011;28923;45.412;10.852;2023-08-17T07:24:31;6.57;;;5.97;;
43327;SDS011;28923;45.412;10.852;2023-08-17T07:26:57;7.35;;;5.82;;
43327;SDS011;28923;45.412;10.852;2023-08-17T07:29:22;7.20;;;6.45;;
43327;SDS011;28923;45.412;10.852;2023-08-17T07:31:48;7.72;;;5.88;;
43327;SDS011;28923;45.412;10.852;2023-08-17T07:34:13;6.18;;;5.60;;
43327;SDS011;28923;45.412;10.852;2023-08-17T07:36:39;6.50;;;5.55;;
43327;SDS011;28923;45.412;10.852;2023-08-17T07:39:04;6.43;;;5.68;;
43327;SDS011;28923;45.412;10.852;2023-08-17T07:41:30;6.47;;;5.78;;
43327;SDS011;28923;45.412;10.852;2023-08-17T07:43:55;8.43;;;5.57;;
43327;SDS011;28923;45.412;10.852;2023-08-17T07:46:21;6.57;;;5.95;;
43327;SDS011;28923;45.412;10.852;2023-08-17T07:48:46;7.07;;;5.80;;
43327;SDS011;28923;45.412;10.852;2023-08-17T07:51:12;6.15;;;5.55;;
43327;SDS011;28923;45.412;10.852;2023-08-17T07:53:37;5.88;;;5.38;;
43327;SDS011;28923;45.412;10.852;2023-08-17T07:56:03;5.78;;;5.00;;
43327;SDS011;28923;45.412;10.852;2023-08-17T07:58:28;5.85;;;5.25;;
43327;SDS011;28923;45.412;10.852;2023-08-17T08:00:53;5.90;;;5.40;;
43327;SDS011;28923;45.412;10.852;2023-08-17T08:03:19;5.53;;;4.97;;
43327;SDS011;28923;45.412;10.852;2023-08-17T08:05:44;5.93;;;5.32;;
43327;SDS011;28923;45.412;10.852;2023-08-17T08:08:10;5.50;;;5.00;;
43327;SDS011;28923;45.412;10.852;2023-08-17T08:10:35;5.90;;;5.03;;
43327;SDS011;28923;45.412;10.852;2023-08-17T08:13:00;5.10;;;4.70;;
43327;SDS011;28923;45.412;10.852;2023-08-17T08:15:26;4.85;;;4.40;;
43327;SDS011;28923;45.412;10.852;2023-08-17T08:17:51;5.35;;;4.70;;
43327;SDS011;28923;45.412;10.852;2023-08-17T08:20:17;5.53;;;4.97;;
43327;SDS011;28923;45.412;10.852;2023-08-17T08:22:42;6.45;;;4.70;;
43327;SDS011;28923;45.412;10.852;2023-08-17T08:25:07;5.50;;;4.90;;
43327;SDS011;28923;45.412;10.852;2023-08-17T08:27:33;5.00;;;4.50;;
43327;SDS011;28923;45.412;10.852;2023-08-17T08:29:58;5.32;;;4.82;;
43327;SDS011;28923;45.412;10.852;2023-08-17T08:32:23;5.30;;;4.80;;
43327;SDS011;28923;45.412;10.852;2023-08-17T08:34:49;5.40;;;4.13;;
43327;SDS011;28923;45.412;10.852;2023-08-17T08:37:14;4.88;;;4.47;;
43327;SDS011;28923;45.412;10.852;2023-08-17T08:39:53;5.22;;;4.70;;
43327;SDS011;28923;45.412;10.852;2023-08-17T08:42:19;4.82;;;4.43;;
43327;SDS011;28923;45.412;10.852;2023-08-17T08:44:45;4.63;;;4.07;;
43327;SDS011;28923;45.412;10.852;2023-08-17T08:47:11;4.45;;;4.05;;
43327;SDS011;28923;45.412;10.852;2023-08-17T08:49:40;5.00;;;4.10;;
43327;SDS011;28923;45.412;10.852;2023-08-17T08:52:12;4.43;;;4.03;;
43327;SDS011;28923;45.412;10.852;2023-08-17T08:54:40;5.20;;;4.75;;
43327;SDS011;28923;45.412;10.852;2023-08-17T08:57:08;4.55;;;4.00;;
43327;SDS011;28923;45.412;10.852;2023-08-17T08:59:34;4.53;;;4.03;;
43327;SDS011;28923;45.412;10.852;2023-08-17T09:02:01;4.55;;;4.15;;
43327;SDS011;28923;45.412;10.852;2023-08-17T09:04:26;4.80;;;4.30;;
43327;SDS011;28923;45.412;10.852;2023-08-17T09:06:52;5.18;;;4.03;;
43327;SDS011;28923;45.412;10.852;2023-08-17T09:09:18;4.72;;;4.32;;
43327;SDS011;28923;45.412;10.852;2023-08-17T09:11:44;4.90;;;4.18;;
43327;SDS011;28923;45.412;10.852;2023-08-17T09:14:10;4.57;;;4.15;;
43327;SDS011;28923;45.412;10.852;2023-08-17T09:16:35;4.68;;;3.97;;
43327;SDS011;28923;45.412;10.852;2023-08-17T09:19:01;4.75;;;3.95;;
43327;SDS011;28923;45.412;10.852;2023-08-17T09:21:26;4.18;;;3.80;;
43327;SDS011;28923;45.412;10.852;2023-08-17T09:23:56;4.30;;;3.83;;
43327;SDS011;28923;45.412;10.852;2023-08-17T09:26:22;4.57;;;4.18;;
43327;SDS011;28923;45.412;10.852;2023-08-17T09:28:50;4.30;;;3.90;;
43327;SDS011;28923;45.412;10.852;2023-08-17T09:31:16;4.75;;;4.28;;
43327;SDS011;28923;45.412;10.852;2023-08-17T09:33:41;4.10;;;3.80;;
43327;SDS011;28923;45.412;10.852;2023-08-17T09:36:06;5.18;;;4.05;;
43327;SDS011;28923;45.412;10.852;2023-08-17T09:38:34;5.03;;;4.45;;
43327;SDS011;28923;45.412;10.852;2023-08-17T09:41:03;3.85;;;3.55;;
43327;SDS011;28923;45.412;10.852;2023-08-17T09:43:29;3.83;;;3.47;;
43327;SDS011;28923;45.412;10.852;2023-08-17T09:45:57;4.40;;;4.00;;
43327;SDS011;28923;45.412;10.852;2023-08-17T09:48:24;3.70;;;3.40;;
43327;SDS011;28923;45.412;10.852;2023-08-17T09:50:50;4.32;;;3.67;;
43327;SDS011;28923;45.412;10.852;2023-08-17T09:53:15;3.85;;;3.45;;
43327;SDS011;28923;45.412;10.852;2023-08-17T09:55:41;11.43;;;4.57;;
43327;SDS011;28923;45.412;10.852;2023-08-17T09:58:08;4.97;;;3.85;;
43327;SDS011;28923;45.412;10.852;2023-08-17T10:00:33;4.93;;;4.10;;
43327;SDS011;28923;45.412;10.852;2023-08-17T10:03:00;4.95;;;4.40;;
43327;SDS011;28923;45.412;10.852;2023-08-17T10:05:26;5.53;;;3.60;;
43327;SDS011;28923;45.412;10.852;2023-08-17T10:07:54;4.50;;;3.90;;
43327;SDS011;28923;45.412;10.852;2023-08-17T10:10:24;6.03;;;3.50;;
43327;SDS011;28923;45.412;10.852;2023-08-17T10:13:12;5.90;;;3.78;;
43327;SDS011;28923;45.412;10.852;2023-08-17T10:18:21;4.28;;;3.75;;
43327;SDS011;28923;45.412;10.852;2023-08-17T10:21:00;4.97;;;3.70;;
43327;SDS011;28923;45.412;10.852;2023-08-17T10:23:27;4.32;;;3.40;;
43327;SDS011;28923;45.412;10.852;2023-08-17T10:25:53;4.90;;;3.92;;
43327;SDS011;28923;45.412;10.852;2023-08-17T10:28:19;4.72;;;3.72;;
43327;SDS011;28923;45.412;10.852;2023-08-17T10:30:44;6.35;;;4.47;;
43327;SDS011;28923;45.412;10.852;2023-08-17T10:33:10;6.97;;;3.83;;
43327;SDS011;28923;45.412;10.852;2023-08-17T10:35:37;4.90;;;3.78;;
43327;SDS011;28923;45.412;10.852;2023-08-17T10:38:03;5.70;;;3.75;;
43327;SDS011;28923;45.412;10.852;2023-08-17T10:40:34;7.05;;;3.88;;
43327;SDS011;28923;45.412;10.852;2023-08-17T10:43:00;6.10;;;4.00;;
43327;SDS011;28923;45.412;10.852;2023-08-17T10:45:29;3.95;;;3.60;;
43327;SDS011;28923;45.412;10.852;2023-08-17T10:50:36;6.82;;;4.30;;
43327;SDS011;28923;45.412;10.852;2023-08-17T10:53:08;5.75;;;3.97;;
43327;SDS011;28923;45.412;10.852;2023-08-17T10:55:37;6.72;;;4.18;;
43327;SDS011;28923;45.412;10.852;2023-08-17T10:58:04;8.55;;;4.00;;
43327;SDS011;28923;45.412;10.852;2023-08-17T11:00:36;8.60;;;4.15;;
43327;SDS011;28923;45.412;10.852;2023-08-17T11:03:05;5.90;;;3.88;;
43327;SDS011;28923;45.412;10.852;2023-08-17T11:05:34;4.13;;;3.72;;
43327;SDS011;28923;45.412;10.852;2023-08-17T11:08:01;4.85;;;4.00;;
43327;SDS011;28923;45.412;10.852;2023-08-17T11:10:27;4.00;;;3.60;;
43327;SDS011;28923;45.412;10.852;2023-08-17T11:12:54;6.45;;;4.22;;
43327;SDS011;28923;45.412;10.852;2023-08-17T11:15:39;4.20;;;3.80;;
43327;SDS011;28923;45.412;10.852;2023-08-17T11:18:07;5.07;;;3.65;;
43327;SDS011;28923;45.412;10.852;2023-08-17T11:20:33;5.78;;;3.70;;
43327;SDS011;28923;45.412;10.852;2023-08-17T11:22:59;5.13;;;3.63;;
43327;SDS011;28923;45.412;10.852;2023-08-17T11:25:28;5.53;;;3.75;;
43327;SDS011;28923;45.412;10.852;2023-08-17T11:27:54;4.20;;;3.53;;
43327;SDS011;28923;45.412;10.852;2023-08-17T11:30:22;3.72;;;3.42;;
43327;SDS011;28923;45.412;10.852;2023-08-17T11:32:49;9.13;;;3.97;;
43327;SDS011;28923;45.412;10.852;2023-08-17T11:35:15;5.45;;;3.53;;
43327;SDS011;28923;45.412;10.852;2023-08-17T11:37:41;3.85;;;3.55;;
43327;SDS011;28923;45.412;10.852;2023-08-17T11:40:06;5.28;;;3.78;;
43327;SDS011;28923;45.412;10.852;2023-08-17T11:42:33;3.55;;;3.25;;
43327;SDS011;28923;45.412;10.852;2023-08-17T11:44:58;4.35;;;3.88;;
43327;SDS011;28923;45.412;10.852;2023-08-17T11:47:24;4.25;;;3.85;;
43327;SDS011;28923;45.412;10.852;2023-08-17T11:49:49;5.45;;;4.13;;
43327;SDS011;28923;45.412;10.852;2023-08-17T11:52:15;6.38;;;3.58;;
43327;SDS011;28923;45.412;10.852;2023-08-17T11:54:41;4.15;;;3.63;;
43327;SDS011;28923;45.412;10.852;2023-08-17T11:57:07;5.93;;;3.65;;
43327;SDS011;28923;45.412;10.852;2023-08-17T11:59:32;4.00;;;3.60;;
43327;SDS011;28923;45.412;10.852;2023-08-17T12:01:58;4.82;;;3.63;;
43327;SDS011;28923;45.412;10.852;2023-08-17T12:04:24;4.05;;;3.50;;
43327;SDS011;28923;45.412;10.852;2023-08-17T12:06:49;5.15;;;3.72;;
43327;SDS011;28923;45.412;10.852;2023-08-17T12:09:15;3.70;;;3.40;;
43327;SDS011;28923;45.412;10.852;2023-08-17T12:11:40;6.53;;;3.90;;
43327;SDS011;28923;45.412;10.852;2023-08-17T12:14:10;4.88;;;3.58;;
43327;SDS011;28923;45.412;10.852;2023-08-17T12:16:45;4.00;;;3.53;;
43327;SDS011;28923;45.412;10.852;2023-08-17T12:19:12;4.00;;;3.60;;
43327;SDS011;28923;45.412;10.852;2023-08-17T12:21:37;5.13;;;3.63;;
43327;SDS011;28923;45.412;10.852;2023-08-17T12:24:05;4.40;;;3.38;;
43327;SDS011;28923;45.412;10.852;2023-08-17T12:26:31;4.05;;;3.47;;
43327;SDS011;28923;45.412;10.852;2023-08-17T12:28:58;4.28;;;3.70;;
43327;SDS011;28923;45.412;10.852;2023-08-17T12:31:23;4.18;;;3.50;;
43327;SDS011;28923;45.412;10.852;2023-08-17T12:33:49;4.65;;;3.38;;
43327;SDS011;28923;45.412;10.852;2023-08-17T12:36:14;5.22;;;3.75;;
43327;SDS011;28923;45.412;10.852;2023-08-17T12:38:40;3.25;;;2.95;;
43327;SDS011;28923;45.412;10.852;2023-08-17T12:41:10;7.47;;;3.50;;
43327;SDS011;28923;45.412;10.852;2023-08-17T12:43:37;4.68;;;3.67;;
43327;SDS011;28923;45.412;10.852;2023-08-17T12:46:02;4.70;;;3.45;;
43327;SDS011;28923;45.412;10.852;2023-08-17T12:48:28;5.70;;;3.55;;
43327;SDS011;28923;45.412;10.852;2023-08-17T12:50:53;4.93;;;3.47;;
43327;SDS011;28923;45.412;10.852;2023-08-17T12:53:19;3.90;;;3.50;;
43327;SDS011;28923;45.412;10.852;2023-08-17T12:55:45;3.70;;;3.40;;
43327;SDS011;28923;45.412;10.852;2023-08-17T12:58:11;4.78;;;3.67;;
43327;SDS011;28923;45.412;10.852;2023-08-17T13:00:36;4.32;;;3.92;;
43327;SDS011;28923;45.412;10.852;2023-08-17T13:03:02;5.70;;;3.67;;
43327;SDS011;28923;45.412;10.852;2023-08-17T13:05:28;3.67;;;3.38;;
43327;SDS011;28923;45.412;10.852;2023-08-17T13:07:54;4.07;;;3.35;;
43327;SDS011;28923;45.412;10.852;2023-08-17T13:10:19;4.68;;;3.85;;
43327;SDS011;28923;45.412;10.852;2023-08-17T13:12:45;3.92;;;3.53;;
43327;SDS011;28923;45.412;10.852;2023-08-17T13:15:12;5.50;;;3.65;;
43327;SDS011;28923;45.412;10.852;2023-08-17T13:17:38;4.22;;;3.45;;
43327;SDS011;28923;45.412;10.852;2023-08-17T13:20:03;3.60;;;3.30;;
43327;SDS011;28923;45.412;10.852;2023-08-17T13:22:31;3.67;;;3.38;;
43327;SDS011;28923;45.412;10.852;2023-08-17T13:24:57;3.72;;;3.20;;
43327;SDS011;28923;45.412;10.852;2023-08-17T13:27:22;3.55;;;3.25;;
43327;SDS011;28923;45.412;10.852;2023-08-17T13:29:48;3.95;;;3.55;;
43327;SDS011;28923;45.412;10.852;2023-08-17T13:32:13;3.75;;;3.38;;
43327;SDS011;28923;45.412;10.852;2023-08-17T13:34:39;3.63;;;3.33;;
43327;SDS011;28923;45.412;10.852;2023-08-17T13:37:04;3.75;;;3.45;;
43327;SDS011;28923;45.412;10.852;2023-08-17T13:39:29;3.50;;;3.20;;
43327;SDS011;28923;45.412;10.852;2023-08-17T13:41:55;4.10;;;3.70;;
43327;SDS011;28923;45.412;10.852;2023-08-17T13:44:21;4.03;;;3.55;;
43327;SDS011;28923;45.412;10.852;2023-08-17T13:46:46;5.22;;;3.83;;
43327;SDS011;28923;45.412;10.852;2023-08-17T13:49:12;6.47;;;3.20;;
43327;SDS011;28923;45.412;10.852;2023-08-17T13:51:37;4.82;;;3.42;;
43327;SDS011;28923;45.412;10.852;2023-08-17T13:54:03;5.78;;;3.42;;
43327;SDS011;28923;45.412;10.852;2023-08-17T13:56:29;4.00;;;3.13;;
43327;SDS011;28923;45.412;10.852;2023-08-17T13:58:54;3.72;;;3.42;;
43327;SDS011;28923;45.412;10.852;2023-08-17T14:01:20;3.17;;;2.97;;
43327;SDS011;28923;45.412;10.852;2023-08-17T14:03:45;3.42;;;3.13;;
43327;SDS011;28923;45.412;10.852;2023-08-17T14:06:11;4.50;;;3.28;;
43327;SDS011;28923;45.412;10.852;2023-08-17T14:08:36;4.60;;;3.40;;
43327;SDS011;28923;45.412;10.852;2023-08-17T14:11:02;4.53;;;3.47;;
43327;SDS011;28923;45.412;10.852;2023-08-17T14:13:27;4.05;;;3.55;;
43327;SDS011;28923;45.412;10.852;2023-08-17T14:15:53;3.45;;;3.20;;
43327;SDS011;28923;45.412;10.852;2023-08-17T14:18:21;3.50;;;3.20;;
43327;SDS011;28923;45.412;10.852;2023-08-17T14:20:46;3.35;;;3.15;;
43327;SDS011;28923;45.412;10.852;2023-08-17T14:23:12;3.95;;;3.28;;
43327;SDS011;28923;45.412;10.852;2023-08-17T14:25:37;3.58;;;3.28;;
43327;SDS011;28923;45.412;10.852;2023-08-17T14:28:06;3.35;;;3.05;;
43327;SDS011;28923;45.412;10.852;2023-08-17T14:30:33;3.70;;;3.40;;
43327;SDS011;28923;45.412;10.852;2023-08-17T14:32:58;3.60;;;3.28;;
43327;SDS011;28923;45.412;10.852;2023-08-17T14:35:25;3.45;;;3.13;;
43327;SDS011;28923;45.412;10.852;2023-08-17T14:37:51;3.22;;;3.03;;
43327;SDS011;28923;45.412;10.852;2023-08-17T14:40:16;3.83;;;3.42;;
43327;SDS011;28923;45.412;10.852;2023-08-17T14:42:42;3.58;;;3.28;;
43327;SDS011;28923;45.412;10.852;2023-08-17T14:45:08;3.63;;;3.33;;
43327;SDS011;28923;45.412;10.852;2023-08-17T14:47:33;4.57;;;3.55;;
43327;SDS011;28923;45.412;10.852;2023-08-17T14:49:58;5.20;;;3.55;;
43327;SDS011;28923;45.412;10.852;2023-08-17T14:52:24;3.63;;;3.35;;
43327;SDS011;28923;45.412;10.852;2023-08-17T14:54:51;5.13;;;3.30;;
43327;SDS011;28923;45.412;10.852;2023-08-17T14:57:16;3.95;;;3.55;;
43327;SDS011;28923;45.412;10.852;2023-08-17T14:59:41;3.42;;;3.13;;
43327;SDS011;28923;45.412;10.852;2023-08-17T15:02:07;3.40;;;3.10;;
43327;SDS011;28923;45.412;10.852;2023-08-17T15:04:33;3.38;;;3.08;;
43327;SDS011;28923;45.412;10.852;2023-08-17T15:07:00;3.70;;;3.40;;
43327;SDS011;28923;45.412;10.852;2023-08-17T15:09:25;3.80;;;3.50;;
43327;SDS011;28923;45.412;10.852;2023-08-17T15:11:52;3.33;;;3.03;;
43327;SDS011;28923;45.412;10.852;2023-08-17T15:14:17;3.45;;;3.15;;
43327;SDS011;28923;45.412;10.852;2023-08-17T15:16:42;3.50;;;3.20;;
43327;SDS011;28923;45.412;10.852;2023-08-17T15:19:08;3.25;;;3.00;;
43327;SDS011;28923;45.412;10.852;2023-08-17T15:21:33;3.40;;;3.20;;
43327;SDS011;28923;45.412;10.852;2023-08-17T15:23:58;4.53;;;3.45;;
43327;SDS011;28923;45.412;10.852;2023-08-17T15:26:24;3.47;;;3.17;;
43327;SDS011;28923;45.412;10.852;2023-08-17T15:28:49;3.33;;;3.03;;
43327;SDS011;28923;45.412;10.852;2023-08-17T15:31:15;3.47;;;3.03;;
43327;SDS011;28923;45.412;10.852;2023-08-17T15:33:41;3.38;;;3.08;;
43327;SDS011;28923;45.412;10.852;2023-08-17T15:36:06;3.40;;;3.13;;
43327;SDS011;28923;45.412;10.852;2023-08-17T15:38:32;3.38;;;3.08;;
43327;SDS011;28923;45.412;10.852;2023-08-17T15:40:57;3.28;;;2.97;;
43327;SDS011;28923;45.412;10.852;2023-08-17T15:43:23;3.53;;;3.05;;
43327;SDS011;28923;45.412;10.852;2023-08-17T15:45:51;3.50;;;3.20;;
43327;SDS011;28923;45.412;10.852;2023-08-17T15:48:17;3.38;;;3.08;;
43327;SDS011;28923;45.412;10.852;2023-08-17T15:50:43;4.78;;;3.28;;
43327;SDS011;28923;45.412;10.852;2023-08-17T15:53:08;3.25;;;3.05;;
43327;SDS011;28923;45.412;10.852;2023-08-17T15:55:34;3.55;;;3.25;;
43327;SDS011;28923;45.412;10.852;2023-08-17T15:57:59;3.70;;;3.40;;
43327;SDS011;28923;45.412;10.852;2023-08-17T16:00:25;3.83;;;3.53;;
43327;SDS011;28923;45.412;10.852;2023-08-17T16:02:50;3.47;;;3.00;;
43327;SDS011;28923;45.412;10.852;2023-08-17T16:05:16;5.82;;;3.40;;
43327;SDS011;28923;45.412;10.852;2023-08-17T16:07:41;3.60;;;3.08;;
43327;SDS011;28923;45.412;10.852;2023-08-17T16:10:07;3.45;;;3.15;;
43327;SDS011;28923;45.412;10.852;2023-08-17T16:12:32;3.88;;;3.00;;
43327;SDS011;28923;45.412;10.852;2023-08-17T16:14:58;3.08;;;2.88;;
43327;SDS011;28923;45.412;10.852;2023-08-17T16:17:24;3.60;;;3.30;;
43327;SDS011;28923;45.412;10.852;2023-08-17T16:19:50;3.55;;;3.05;;
43327;SDS011;28923;45.412;10.852;2023-08-17T16:22:17;3.38;;;3.08;;
43327;SDS011;28923;45.412;10.852;2023-08-17T16:24:43;3.38;;;3.08;;
43327;SDS011;28923;45.412;10.852;2023-08-17T16:27:08;3.60;;;3.30;;
43327;SDS011;28923;45.412;10.852;2023-08-17T16:29:34;5.72;;;3.35;;
43327;SDS011;28923;45.412;10.852;2023-08-17T16:32:00;3.22;;;2.92;;
43327;SDS011;28923;45.412;10.852;2023-08-17T16:34:27;3.90;;;3.50;;
43327;SDS011;28923;45.412;10.852;2023-08-17T16:36:52;4.13;;;3.65;;
43327;SDS011;28923;45.412;10.852;2023-08-17T16:39:18;4.25;;;3.50;;
43327;SDS011;28923;45.412;10.852;2023-08-17T16:41:47;5.07;;;3.55;;
43327;SDS011;28923;45.412;10.852;2023-08-17T16:44:20;5.00;;;4.05;;
43327;SDS011;28923;45.412;10.852;2023-08-17T16:46:49;5.65;;;3.95;;
43327;SDS011;28923;45.412;10.852;2023-08-17T16:49:17;4.20;;;3.65;;
43327;SDS011;28923;45.412;10.852;2023-08-17T16:51:43;5.97;;;4.30;;
43327;SDS011;28923;45.412;10.852;2023-08-17T16:54:08;5.82;;;4.72;;
43327;SDS011;28923;45.412;10.852;2023-08-17T16:56:34;8.38;;;4.90;;
43327;SDS011;28923;45.412;10.852;2023-08-17T16:58:59;7.78;;;4.85;;
43327;SDS011;28923;45.412;10.852;2023-08-17T17:01:24;9.70;;;5.38;;
43327;SDS011;28923;45.412;10.852;2023-08-17T17:03:50;9.45;;;5.00;;
43327;SDS011;28923;45.412;10.852;2023-08-17T17:06:18;8.60;;;5.13;;
43327;SDS011;28923;45.412;10.852;2023-08-17T17:08:44;5.35;;;4.35;;
43327;SDS011;28923;45.412;10.852;2023-08-17T17:11:10;5.60;;;4.65;;
43327;SDS011;28923;45.412;10.852;2023-08-17T17:13:36;5.30;;;4.70;;
43327;SDS011;28923;45.412;10.852;2023-08-17T17:16:01;7.93;;;5.03;;
43327;SDS011;28923;45.412;10.852;2023-08-17T17:18:27;6.45;;;4.82;;
43327;SDS011;28923;45.412;10.852;2023-08-17T17:20:53;5.55;;;4.53;;
43327;SDS011;28923;45.412;10.852;2023-08-17T17:23:18;10.98;;;4.43;;
43327;SDS011;28923;45.412;10.852;2023-08-17T17:25:44;6.28;;;4.53;;
43327;SDS011;28923;45.412;10.852;2023-08-17T17:28:09;6.25;;;3.97;;
43327;SDS011;28923;45.412;10.852;2023-08-17T17:30:35;7.10;;;4.40;;
43327;SDS011;28923;45.412;10.852;2023-08-17T17:33:00;7.78;;;4.43;;
43327;SDS011;28923;45.412;10.852;2023-08-17T17:35:26;4.60;;;4.00;;
43327;SDS011;28923;45.412;10.852;2023-08-17T17:37:51;6.07;;;4.10;;
43327;SDS011;28923;45.412;10.852;2023-08-17T17:40:17;4.68;;;4.03;;
43327;SDS011;28923;45.412;10.852;2023-08-17T17:42:42;5.93;;;4.25;;
43327;SDS011;28923;45.412;10.852;2023-08-17T17:45:08;4.72;;;3.92;;
43327;SDS011;28923;45.412;10.852;2023-08-17T17:47:34;4.93;;;3.95;;
43327;SDS011;28923;45.412;10.852;2023-08-17T17:50:03;5.25;;;4.00;;
43327;SDS011;28923;45.412;10.852;2023-08-17T17:52:29;5.07;;;4.28;;
43327;SDS011;28923;45.412;10.852;2023-08-17T17:54:54;4.50;;;3.85;;
43327;SDS011;28923;45.412;10.852;2023-08-17T17:57:20;6.10;;;3.90;;
43327;SDS011;28923;45.412;10.852;2023-08-17T17:59:45;14.57;;;4.53;;
43327;SDS011;28923;45.412;10.852;2023-08-17T18:02:11;5.03;;;3.88;;
43327;SDS011;28923;45.412;10.852;2023-08-17T18:04:36;6.72;;;4.03;;
43327;SDS011;28923;45.412;10.852;2023-08-17T18:07:02;6.20;;;4.20;;
43327;SDS011;28923;45.412;10.852;2023-08-17T18:09:28;7.55;;;4.70;;
43327;SDS011;28923;45.412;10.852;2023-08-17T18:11:55;9.10;;;4.90;;
43327;SDS011;28923;45.412;10.852;2023-08-17T18:14:20;7.65;;;5.13;;
43327;SDS011;28923;45.412;10.852;2023-08-17T18:16:45;6.63;;;5.00;;
43327;SDS011;28923;45.412;10.852;2023-08-17T18:19:11;8.18;;;4.88;;
43327;SDS011;28923;45.412;10.852;2023-08-17T18:21:36;6.47;;;5.88;;
43327;SDS011;28923;45.412;10.852;2023-08-17T18:24:02;6.70;;;5.53;;
43327;SDS011;28923;45.412;10.852;2023-08-17T18:26:28;5.95;;;5.35;;
43327;SDS011;28923;45.412;10.852;2023-08-17T18:28:53;6.55;;;5.40;;
43327;SDS011;28923;45.412;10.852;2023-08-17T18:31:20;5.78;;;5.13;;
43327;SDS011;28923;45.412;10.852;2023-08-17T18:33:45;8.00;;;4.97;;